Waterford, Mississippi
Current Conditions -  °F | °C
As of 12:15 PM on Tuesday 21 Oct 2014 (Local Time) from KUOX Reporting Station
Clear Clear  
Wind Chill: 72°   Ceiling: Unl
Heat Index: 72°   Visibility: 9mi
Dew Point: 50°   Wind: 5mph
Humidity: 46%   Direction: 20°NNE
Pressure: 30.1"   Gusts: NA
Location:  34.65°N, 89.46°W
Report Text: KUOX 211715Z AUTO 02004KT 9SM CLR 22/10 A3010 RMK AO2 PWINO PNO
Loading
Personal Weather Stations






























Interactive Weather Map New forecast layout! Learn more

10-Day Weather Forecast

Advertisements
Track Severe Weather on mobile